Time;durP1;ratioP1;P1;durP2;ratioP2;P2;SDS_P1;SDS_P2;PMS_P1;PMS_P2;Temp;Humidity;BMP_temperature;BMP_pressure;BME280_temperature;BME280_humidity;BME280_pressure;Samples;Min_cycle;Max_cycle;Signal;HPM_P1;HPM_P2
2023/08/07 00:00:45;;;;;;;1.80;1.08;;;;;;;17.01;79.04;94045.56;5077104;28;20264;-73
2023/08/07 00:03:18;;;;;;;1.60;1.13;;;;;;;16.96;79.10;94043.16;5060842;28;20214;-73
2023/08/07 00:05:47;;;;;;;1.52;1.10;;;;;;;16.96;79.20;94040.44;5068779;28;20593;-73
2023/08/07 00:08:13;;;;;;;1.63;1.05;;;;;;;17.00;78.82;94033.03;5070374;28;20203;-73
2023/08/07 00:10:40;;;;;;;1.38;1.10;;;;;;;17.00;78.90;94043.97;5074950;28;20211;-73
2023/08/07 00:13:07;;;;;;;1.50;1.15;;;;;;;16.96;79.41;94042.38;5070256;28;20673;-73
2023/08/07 00:15:38;;;;;;;1.63;1.30;;;;;;;16.91;79.73;94051.75;5070258;28;20249;-73
2023/08/07 00:18:09;;;;;;;1.48;1.05;;;;;;;16.92;79.58;94042.38;5071194;28;20709;-74
2023/08/07 00:20:36;;;;;;;1.45;1.00;;;;;;;16.85;80.06;94042.31;5069544;28;20225;-72
2023/08/07 00:23:04;;;;;;;1.27;1.00;;;;;;;16.79;80.27;94034.88;5070147;28;20203;-73
2023/08/07 00:25:31;;;;;;;1.38;1.20;;;;;;;16.76;80.20;94039.16;5069944;28;20198;-73
2023/08/07 00:27:57;;;;;;;1.35;1.25;;;;;;;16.72;80.61;94038.34;5069322;28;20210;-72
2023/08/07 00:30:24;;;;;;;1.85;1.35;;;;;;;16.72;80.79;94043.81;5068254;28;20646;-72
2023/08/07 00:32:51;;;;;;;1.42;1.33;;;;;;;16.74;80.56;94036.00;5061020;28;20242;-73
2023/08/07 00:35:18;;;;;;;1.02;0.90;;;;;;;16.73;80.95;94039.91;5078250;28;20200;-73
2023/08/07 00:37:45;;;;;;;1.13;1.02;;;;;;;16.69;81.32;94039.09;5063950;28;20215;-72
2023/08/07 00:40:13;;;;;;;2.05;1.17;;;;;;;16.56;82.28;94046.78;5069219;28;20692;-73
2023/08/07 00:42:40;;;;;;;1.20;1.05;;;;;;;16.48;82.67;94052.59;5065868;28;20196;-72
2023/08/07 00:45:07;;;;;;;3.20;2.05;;;;;;;16.52;82.04;94045.19;5069498;28;20248;-73
2023/08/07 00:47:34;;;;;;;2.05;1.80;;;;;;;16.44;82.84;94054.50;5069838;28;20195;-72
2023/08/07 00:50:03;;;;;;;2.17;1.98;;;;;;;16.38;83.45;94061.50;5069445;28;20203;-72
2023/08/07 00:52:30;;;;;;;2.58;2.38;;;;;;;16.35;83.69;94068.50;5069530;28;20214;-72
2023/08/07 00:54:57;;;;;;;3.00;2.40;;;;;;;16.27;84.21;94066.84;5068394;28;20634;-71
2023/08/07 00:57:26;;;;;;;3.63;2.67;;;;;;;16.21;84.35;94063.69;5069393;28;20650;-73
2023/08/07 00:59:53;;;;;;;2.53;1.77;;;;;;;16.23;84.54;94076.97;5072578;28;20230;-72
2023/08/07 01:02:20;;;;;;;1.95;1.58;;;;;;;16.18;85.00;94075.38;5074855;28;20207;-73
2023/08/07 01:04:47;;;;;;;1.77;1.17;;;;;;;16.16;85.18;94077.69;5068393;28;20719;-72
2023/08/07 01:07:14;;;;;;;1.70;1.55;;;;;;;16.12;85.40;94082.34;5068701;28;20301;-73
2023/08/07 01:09:41;;;;;;;1.77;1.35;;;;;;;16.09;85.92;94083.09;5061355;28;20280;-74
2023/08/07 01:12:16;;;;;;;2.08;1.55;;;;;;;16.04;85.76;94075.22;5068719;28;20286;-74
2023/08/07 01:14:52;;;;;;;1.80;1.63;;;;;;;16.05;86.23;94093.19;5061795;28;20214;-74
2023/08/07 01:17:22;;;;;;;3.00;1.70;;;;;;;15.97;86.88;94095.09;5064462;28;20189;-73
2023/08/07 01:19:52;;;;;;;2.42;1.65;;;;;;;15.86;87.78;94101.56;5069490;28;20673;-75
2023/08/07 01:22:21;;;;;;;3.42;1.83;;;;;;;15.81;88.60;94102.72;5068560;28;20281;-74
2023/08/07 01:24:49;;;;;;;3.22;2.42;;;;;;;15.73;89.41;94106.50;5056043;28;21032;-74
2023/08/07 01:27:37;;;;;;;1.75;1.52;;;;;;;15.69;89.71;94102.16;5068497;28;20195;-73
2023/08/07 01:30:23;;;;;;;1.85;1.70;;;;;;;15.62;90.58;94102.84;5068321;28;20249;-73
2023/08/07 01:33:10;;;;;;;2.45;1.80;;;;;;;15.58;90.72;94102.81;5067936;28;20222;-74
2023/08/07 01:35:43;;;;;;;2.25;1.55;;;;;;;15.58;90.41;94091.88;5069022;28;20267;-75
2023/08/07 01:38:12;;;;;;;2.58;1.98;;;;;;;15.54;91.32;94096.50;5068339;28;20681;-73
2023/08/07 01:40:40;;;;;;;2.80;2.10;;;;;;;15.46;91.70;94100.28;5066396;28;20707;-74
2023/08/07 01:43:12;;;;;;;1.55;1.35;;;;;;;15.46;92.27;94100.28;5068979;28;20253;-76
2023/08/07 01:48:48;;;;;;;3.53;3.20;;;;;;;15.42;92.55;94083.09;5046215;28;20597;-78
2023/08/07 01:51:32;;;;;;;3.42;3.13;;;;;;;15.46;92.29;94094.84;5067499;28;20590;-74
2023/08/07 01:54:20;;;;;;;;;;;;;;;;;;;;;
2023/08/07 01:59:44;;;;;;;2.53;1.83;;;;;;;15.62;92.67;94103.66;5068893;28;20916;-74
2023/08/07 02:02:18;;;;;;;2.65;2.45;;;;;;;15.42;93.51;94115.84;5068891;28;20202;-75
2023/08/07 02:05:12;;;;;;;1.98;1.60;;;;;;;15.39;93.32;94111.13;5065106;28;20297;-75
2023/08/07 02:07:51;;;;;;;2.40;1.52;;;;;;;15.16;93.28;94108.50;5068979;28;20206;-75
2023/08/07 02:10:34;;;;;;;1.83;1.60;;;;;;;15.07;93.13;94104.44;5066291;28;20202;-75
2023/08/07 02:13:04;;;;;;;2.25;1.90;;;;;;;14.98;93.20;94084.84;5064934;28;20202;-78
2023/08/07 02:21:12;;;;;;;2.80;2.42;;;;;;;14.94;93.43;94095.69;5059623;28;20266;-74
2023/08/07 02:23:48;;;;;;;2.38;1.75;;;;;;;15.17;93.46;94131.13;5068878;28;20203;-75
2023/08/07 02:26:16;;;;;;;3.28;2.05;;;;;;;15.15;93.69;94133.41;5068907;28;20190;-74
2023/08/07 02:28:43;;;;;;;2.78;2.03;;;;;;;15.18;94.33;94141.63;5068448;28;20203;-74
2023/08/07 02:31:09;;;;;;;2.97;1.85;;;;;;;15.09;94.77;94135.66;5068577;28;20195;-73
2023/08/07 02:33:36;;;;;;;2.65;1.98;;;;;;;15.18;94.86;94140.84;5068072;28;20223;-73
2023/08/07 02:36:03;;;;;;;2.28;1.33;;;;;;;15.26;93.65;94131.63;5067241;28;20237;-73
2023/08/07 02:38:30;;;;;;;1.10;1.00;;;;;;;15.21;93.56;94124.53;5068092;28;20199;-71
2023/08/07 02:40:56;;;;;;;3.22;2.92;;;;;;;15.20;94.08;94130.34;5067755;28;20231;-73
2023/08/07 02:43:25;;;;;;;3.83;3.40;;;;;;;15.06;95.03;94130.16;5067776;28;20248;-73
2023/08/07 02:45:53;;;;;;;3.95;3.20;;;;;;;14.94;95.86;94131.16;5061965;28;20188;-73
2023/08/07 02:48:20;;;;;;;4.65;3.63;;;;;;;14.93;96.24;94135.03;5068053;28;20199;-72
2023/08/07 02:50:47;;;;;;;4.20;3.47;;;;;;;14.96;95.55;94136.25;5069458;28;20225;-73
2023/08/07 02:53:14;;;;;;;3.20;2.80;;;;;;;15.02;94.60;94140.25;5072273;28;20230;-72
2023/08/07 02:55:44;;;;;;;3.05;2.75;;;;;;;15.10;93.84;94141.91;5071365;28;20621;-73
2023/08/07 02:58:10;;;;;;;3.30;3.00;;;;;;;15.08;94.06;94142.28;5071276;28;20188;-74
2023/08/07 03:00:39;;;;;;;3.38;2.85;;;;;;;15.16;93.62;94145.91;5065964;28;20226;-72
2023/08/07 03:03:05;;;;;;;3.53;3.13;;;;;;;15.11;93.92;94148.94;5071415;28;20191;-74
2023/08/07 03:05:32;;;;;;;3.58;3.28;;;;;;;15.06;93.98;94154.72;5071692;28;20581;-73
2023/08/07 03:07:59;;;;;;;2.70;1.65;;;;;;;15.05;94.16;94161.31;5071045;28;20229;-74
2023/08/07 03:10:26;;;;;;;1.48;1.33;;;;;;;15.01;94.46;94160.50;5071847;28;20207;-73
2023/08/07 03:12:53;;;;;;;4.10;3.70;;;;;;;15.00;95.13;94158.91;5067234;28;20219;-73
2023/08/07 03:15:19;;;;;;;4.22;3.08;;;;;;;14.97;95.18;94154.19;5071278;28;20662;-72
2023/08/07 03:17:48;;;;;;;3.83;3.42;;;;;;;15.07;94.62;94164.47;5071157;28;20203;-73
2023/08/07 03:20:14;;;;;;;4.13;3.08;;;;;;;15.12;94.15;94161.44;5072789;28;20203;-74
2023/08/07 03:22:41;;;;;;;4.72;3.22;;;;;;;15.17;94.14;94169.31;5071442;28;20195;-73
2023/08/07 03:25:08;;;;;;;3.50;3.20;;;;;;;15.27;93.54;94174.13;5071199;28;20237;-74
2023/08/07 03:27:35;;;;;;;3.08;2.10;;;;;;;15.33;93.28;94172.66;5071095;28;20206;-74
2023/08/07 03:30:02;;;;;;;2.83;1.95;;;;;;;15.39;93.37;94176.63;5071208;28;20341;-73
2023/08/07 03:32:29;;;;;;;4.28;2.47;;;;;;;15.45;93.01;94180.59;5071775;28;20936;-73
2023/08/07 03:34:57;;;;;;;1.85;1.60;;;;;;;15.82;91.27;94183.50;5076559;28;20191;-72
2023/08/07 03:37:24;;;;;;;3.30;2.38;;;;;;;16.24;89.05;94176.94;5071330;28;20195;-73
2023/08/07 03:39:53;;;;;;;2.45;2.25;;;;;;;16.70;86.95;94193.81;5071416;28;20218;-73
2023/08/07 03:42:20;;;;;;;3.53;2.50;;;;;;;16.78;85.54;94195.47;5070497;28;20231;-72
2023/08/07 03:44:47;;;;;;;3.58;2.35;;;;;;;16.26;87.49;94199.22;5070494;28;20198;-72
2023/08/07 03:47:14;;;;;;;2.67;2.20;;;;;;;16.35;87.56;94195.03;5070677;28;20310;-73
2023/08/07 03:49:41;;;;;;;2.90;1.75;;;;;;;16.06;88.27;94195.88;5070544;28;20268;-73
2023/08/07 03:52:10;;;;;;;2.97;2.15;;;;;;;16.18;88.41;94203.03;5070731;28;20195;-73
2023/08/07 03:54:36;;;;;;;2.35;1.83;;;;;;;16.05;88.13;94209.91;5070744;28;20210;-72
2023/08/07 03:57:03;;;;;;;2.65;2.35;;;;;;;15.91;88.57;94199.59;5070795;28;20195;-72
2023/08/07 03:59:30;;;;;;;3.70;2.33;;;;;;;16.37;87.09;94202.84;5071082;28;20724;-74
2023/08/07 04:01:57;;;;;;;6.53;2.45;;;;;;;17.31;82.50;94192.38;5072717;28;20223;-73
2023/08/07 04:04:24;;;;;;;3.33;1.50;;;;;;;18.30;77.55;94208.59;5070126;28;20203;-73
2023/08/07 04:06:50;;;;;;;2.33;1.77;;;;;;;19.65;72.35;94211.50;5070441;28;20187;-74
2023/08/07 04:09:19;;;;;;;3.97;1.75;;;;;;;20.10;69.65;94204.28;5071511;28;20205;-74
2023/08/07 04:11:45;;;;;;;3.55;2.00;;;;;;;20.41;68.69;94202.63;5070534;28;20204;-74
2023/08/07 04:14:12;;;;;;;4.68;2.15;;;;;;;20.12;68.82;94207.44;5070742;28;20281;-74
2023/08/07 04:16:39;;;;;;;2.60;2.40;;;;;;;19.54;69.96;94211.53;5070554;28;20191;-74
2023/08/07 04:19:07;;;;;;;2.80;1.98;;;;;;;18.72;72.77;94218.91;5069842;28;20603;-74
2023/08/07 04:21:34;;;;;;;4.00;1.73;;;;;;;18.17;75.43;94224.59;5070554;28;20360;-74
2023/08/07 04:24:01;;;;;;;2.08;1.70;;;;;;;17.87;76.20;94226.78;5070247;28;20654;-74
2023/08/07 04:26:29;;;;;;;2.05;1.75;;;;;;;17.41;78.17;94233.50;5070477;28;20306;-73
2023/08/07 04:28:55;;;;;;;3.17;2.10;;;;;;;17.45;78.64;94227.28;5069913;28;20195;-74
2023/08/07 04:31:22;;;;;;;1.67;1.58;;;;;;;17.32;79.16;94224.84;5070321;28;20207;-74
2023/08/07 04:33:49;;;;;;;2.28;1.83;;;;;;;17.50;79.35;94229.66;5069984;28;20235;-74
2023/08/07 04:36:16;;;;;;;4.57;2.38;;;;;;;17.74;77.77;94232.59;5069364;28;20360;-74
2023/08/07 04:38:42;;;;;;;1.98;1.63;;;;;;;17.75;77.74;94231.44;5069730;28;20195;-73
2023/08/07 04:41:09;;;;;;;2.63;1.88;;;;;;;17.57;78.27;94235.97;5069965;28;20223;-73
2023/08/07 04:43:37;;;;;;;2.50;1.70;;;;;;;17.45;78.46;94233.56;5070358;28;20214;-73
2023/08/07 04:46:04;;;;;;;2.53;1.98;;;;;;;17.99;78.00;94231.94;5068974;28;20210;-72
2023/08/07 04:48:31;;;;;;;1.58;1.25;;;;;;;18.09;75.41;94233.94;5069998;28;20787;-73
2023/08/07 04:50:59;;;;;;;2.33;1.90;;;;;;;18.40;75.08;94238.78;5069809;28;20661;-73
2023/08/07 04:53:25;;;;;;;1.50;1.33;;;;;;;19.30;71.39;94223.25;5069567;28;20223;-72
2023/08/07 04:55:52;;;;;;;1.95;1.55;;;;;;;19.92;69.34;94222.81;5069703;28;20232;-71
2023/08/07 04:58:19;;;;;;;2.70;2.10;;;;;;;20.44;67.13;94224.63;5069238;28;20661;-73
2023/08/07 05:00:47;;;;;;;1.67;1.42;;;;;;;20.87;65.17;94224.41;5069560;28;20252;-72
2023/08/07 05:03:15;;;;;;;0.70;0.70;;;;;;;20.81;65.13;94228.75;5067351;28;20203;-71
2023/08/07 05:05:42;;;;;;;1.98;1.70;;;;;;;22.59;60.24;94214.13;5069411;28;20206;-73
2023/08/07 05:08:08;;;;;;;2.10;1.73;;;;;;;24.29;55.99;94216.19;5069500;28;20650;-73
2023/08/07 05:10:35;;;;;;;2.10;1.90;;;;;;;23.98;54.02;94202.50;5069397;28;20195;-73
2023/08/07 05:13:02;;;;;;;1.98;1.80;;;;;;;23.62;55.57;94201.59;5068728;28;20219;-72
2023/08/07 05:15:30;;;;;;;2.65;2.08;;;;;;;24.63;53.55;94197.28;5069085;28;20195;-73
2023/08/07 05:17:59;;;;;;;1.88;1.77;;;;;;;24.31;52.16;94202.72;5069386;28;20578;-72
2023/08/07 05:20:25;;;;;;;2.00;1.80;;;;;;;23.63;54.52;94208.69;5069340;28;20248;-72
2023/08/07 05:22:52;;;;;;;2.15;1.95;;;;;;;23.76;54.48;94204.13;5068835;28;20230;-73
2023/08/07 05:25:19;;;;;;;1.90;1.80;;;;;;;23.06;56.36;94204.03;5068121;28;20997;-73
2023/08/07 05:27:46;;;;;;;2.03;1.90;;;;;;;22.84;56.67;94208.28;5068481;28;20211;-73
2023/08/07 05:30:14;;;;;;;3.72;1.80;;;;;;;22.86;56.41;94209.44;5069064;28;20207;-73
2023/08/07 05:32:41;;;;;;;1.70;1.60;;;;;;;24.03;53.58;94207.56;5069177;28;20643;-74
2023/08/07 05:35:09;;;;;;;3.80;1.80;;;;;;;24.80;51.73;94207.22;5069035;28;20222;-72
2023/08/07 05:37:36;;;;;;;2.10;1.90;;;;;;;24.79;51.16;94211.19;5068564;28;20192;-74
2023/08/07 05:40:04;;;;;;;6.47;2.58;;;;;;;25.52;49.27;94205.59;5066729;28;20203;-75
2023/08/07 05:42:31;;;;;;;1.98;1.65;;;;;;;24.57;51.66;94204.56;5068563;28;20292;-75
2023/08/07 05:44:59;;;;;;;1.80;1.45;;;;;;;25.81;48.84;94195.38;5068893;28;20352;-73
2023/08/07 05:47:26;;;;;;;1.85;1.67;;;;;;;25.06;49.47;94210.25;5068953;28;20195;-73
2023/08/07 05:49:52;;;;;;;1.80;1.70;;;;;;;24.24;51.46;94220.25;5068596;28;20211;-74
2023/08/07 05:52:21;;;;;;;1.98;1.65;;;;;;;24.54;50.82;94205.41;5068954;28;20252;-73
2023/08/07 05:54:47;;;;;;;1.80;1.60;;;;;;;25.20;50.43;94212.69;5068432;28;20206;-74
2023/08/07 05:57:14;;;;;;;1.58;1.48;;;;;;;25.93;47.73;94208.53;5077184;28;20214;-74
2023/08/07 05:59:41;;;;;;;1.50;1.30;;;;;;;24.30;50.45;94213.00;5071124;28;20264;-75
2023/08/07 06:02:10;;;;;;;1.38;1.27;;;;;;;25.81;47.25;94207.25;5073471;28;20230;-72
2023/08/07 06:04:37;;;;;;;2.03;1.40;;;;;;;25.23;48.07;94217.38;5069337;28;20207;-73
2023/08/07 06:07:04;;;;;;;2.58;2.00;;;;;;;24.78;49.47;94215.16;5068453;28;20281;-73
2023/08/07 06:09:33;;;;;;;2.25;1.65;;;;;;;24.50;51.22;94213.00;5068970;28;20199;-73
2023/08/07 06:12:00;;;;;;;2.00;1.45;;;;;;;24.38;51.66;94208.09;5068238;28;20226;-72
2023/08/07 06:14:26;;;;;;;1.77;1.63;;;;;;;24.61;51.06;94210.78;5068283;28;20203;-74
2023/08/07 06:16:53;;;;;;;1.40;1.30;;;;;;;25.51;49.19;94199.28;5067931;28;20213;-75
2023/08/07 06:19:22;;;;;;;1.80;1.70;;;;;;;26.25;46.49;94190.22;5067947;28;20199;-74
2023/08/07 06:21:49;;;;;;;2.17;1.60;;;;;;;26.43;46.96;94196.88;5067740;28;20227;-73
2023/08/07 06:24:15;;;;;;;3.00;1.73;;;;;;;28.36;43.69;94186.03;5068716;28;20275;-74
2023/08/07 06:26:44;;;;;;;2.10;1.70;;;;;;;29.27;40.68;94186.56;5071245;28;20238;-74
2023/08/07 06:29:10;;;;;;;4.82;2.00;;;;;;;28.34;42.19;94178.13;5072830;28;20248;-74
2023/08/07 06:31:37;;;;;;;2.05;1.85;;;;;;;25.84;46.62;94188.94;5071981;28;20239;-73
2023/08/07 06:34:04;;;;;;;1.63;1.40;;;;;;;25.47;46.66;94184.72;5072303;28;20225;-74
2023/08/07 06:36:31;;;;;;;1.42;1.33;;;;;;;27.48;41.46;94174.63;5072097;28;20743;-74
2023/08/07 06:38:57;;;;;;;1.27;1.17;;;;;;;27.70;39.80;94180.31;5071636;28;20195;-74
2023/08/07 06:41:24;;;;;;;1.95;1.20;;;;;;;25.62;44.17;94185.16;5072191;28;20195;-73
2023/08/07 06:43:52;;;;;;;1.92;1.65;;;;;;;26.54;42.87;94174.34;5072246;28;20199;-73
2023/08/07 06:46:24;;;;;;;2.00;1.33;;;;;;;25.11;44.79;94198.66;5071906;28;20199;-73
2023/08/07 06:48:50;;;;;;;2.55;1.13;;;;;;;25.57;44.19;94196.75;5071858;28;20202;-75
2023/08/07 06:51:19;;;;;;;2.90;1.10;;;;;;;24.30;45.97;94201.94;5072172;28;20198;-74
2023/08/07 06:53:47;;;;;;;1.30;1.20;;;;;;;25.21;42.97;94207.94;5071916;28;20264;-73
2023/08/07 06:56:14;;;;;;;1.10;1.00;;;;;;;26.08;41.20;94195.06;5074011;28;20199;-73
2023/08/07 06:58:41;;;;;;;1.33;0.88;;;;;;;25.02;41.55;94202.00;5079297;28;20235;-73
2023/08/07 07:01:09;;;;;;;0.88;0.77;;;;;;;24.95;42.22;94201.38;5071840;28;20207;-74
2023/08/07 07:03:36;;;;;;;0.80;0.80;;;;;;;26.37;40.77;94193.09;5071411;28;20233;-76
2023/08/07 07:06:03;;;;;;;1.60;0.98;;;;;;;26.71;40.24;94200.84;5071382;28;20219;-73
2023/08/07 07:08:29;;;;;;;2.30;0.75;;;;;;;26.25;39.79;94184.66;5069752;28;20576;-73
2023/08/07 07:10:58;;;;;;;0.80;0.70;;;;;;;24.78;42.78;94198.53;5068868;28;20203;-74
2023/08/07 07:13:25;;;;;;;3.53;0.95;;;;;;;25.52;42.57;94191.75;5078635;28;20261;-74
2023/08/07 07:15:54;;;;;;;1.52;0.80;;;;;;;24.83;43.33;94199.25;5070169;28;20558;-74
2023/08/07 07:18:22;;;;;;;3.00;1.02;;;;;;;24.99;43.81;94194.56;5070351;28;20625;-73
2023/08/07 07:20:58;;;;;;;1.05;0.93;;;;;;;24.66;44.38;94179.81;5071471;28;20210;-72
2023/08/07 07:23:25;;;;;;;1.80;1.20;;;;;;;24.14;46.48;94198.28;5080944;28;20313;-72
2023/08/07 07:25:52;;;;;;;2.47;1.20;;;;;;;23.73;47.57;94202.19;5075565;28;20544;-72
2023/08/07 07:28:20;;;;;;;1.20;1.10;;;;;;;24.64;45.41;94193.31;5071507;28;20290;-74
2023/08/07 07:30:47;;;;;;;1.20;1.10;;;;;;;25.36;45.39;94193.28;5071424;28;20191;-73
2023/08/07 07:33:14;;;;;;;1.40;1.30;;;;;;;26.62;41.69;94180.50;5071405;28;20242;-74
2023/08/07 07:35:42;;;;;;;1.30;1.20;;;;;;;27.50;40.78;94183.31;5068132;28;20226;-74
2023/08/07 07:38:10;;;;;;;1.40;1.10;;;;;;;27.51;39.85;94173.75;5070378;28;20198;-73
2023/08/07 07:40:37;;;;;;;2.33;1.30;;;;;;;26.26;43.04;94191.78;5071486;28;20206;-72
2023/08/07 07:43:04;;;;;;;8.93;1.13;;;;;;;24.79;44.99;94200.09;5062987;28;20258;-72
2023/08/07 07:45:33;;;;;;;2.40;0.77;;;;;;;25.44;44.37;94189.13;5071079;28;20203;-73
2023/08/07 07:48:00;;;;;;;1.60;1.20;;;;;;;25.45;44.27;94193.47;5069879;28;20199;-74
2023/08/07 07:50:27;;;;;;;2.10;1.17;;;;;;;25.20;45.20;94184.97;5071097;28;20203;-72
2023/08/07 07:52:55;;;;;;;2.05;1.50;;;;;;;24.49;45.48;94192.03;5070142;28;20249;-73
2023/08/07 07:55:22;;;;;;;2.00;1.40;;;;;;;24.59;46.32;94191.06;5071588;28;20282;-74
2023/08/07 07:57:49;;;;;;;1.10;1.00;;;;;;;24.59;45.74;94196.59;5080187;28;20233;-73
2023/08/07 08:00:16;;;;;;;1.23;1.13;;;;;;;24.43;46.59;94188.22;5071451;28;20191;-72
2023/08/07 08:02:43;;;;;;;1.27;0.88;;;;;;;23.94;46.74;94187.16;5058248;28;20254;-73
2023/08/07 08:05:12;;;;;;;1.40;1.30;;;;;;;24.89;46.32;94187.22;5060340;28;20310;-73
2023/08/07 08:07:40;;;;;;;2.58;1.52;;;;;;;24.58;45.07;94183.19;5069848;28;20585;-73
2023/08/07 08:10:09;;;;;;;1.33;1.23;;;;;;;24.48;45.49;94190.47;5067714;28;20252;-74
2023/08/07 08:12:36;;;;;;;1.70;1.60;;;;;;;24.51;45.76;94189.63;5070176;28;20222;-73
2023/08/07 08:15:04;;;;;;;1.30;1.20;;;;;;;23.69;47.33;94195.94;5070925;28;20203;-73
2023/08/07 08:17:31;;;;;;;1.30;1.20;;;;;;;23.87;47.04;94190.88;5068047;28;20281;-74
2023/08/07 08:19:59;;;;;;;1.60;1.50;;;;;;;24.03;46.69;94193.72;5061351;28;20203;-73
2023/08/07 08:22:26;;;;;;;1.70;1.38;;;;;;;24.49;45.95;94180.19;5068271;28;20238;-73
2023/08/07 08:24:52;;;;;;;1.80;1.23;;;;;;;24.83;44.95;94179.88;5068465;28;20199;-74
2023/08/07 08:27:21;;;;;;;1.73;1.20;;;;;;;25.37;45.37;94175.44;5069133;28;20199;-74
2023/08/07 08:29:48;;;;;;;2.80;1.25;;;;;;;26.47;43.32;94163.44;5070452;28;20268;-73
2023/08/07 08:32:18;;;;;;;3.08;1.38;;;;;;;25.76;43.03;94171.72;5070479;28;20284;-73
2023/08/07 08:34:45;;;;;;;1.83;1.42;;;;;;;26.13;43.06;94167.53;5068857;28;20226;-73
2023/08/07 08:37:12;;;;;;;1.98;1.30;;;;;;;26.65;42.64;94168.50;5068905;28;20245;-74
2023/08/07 08:39:39;;;;;;;2.15;1.25;;;;;;;25.65;42.29;94170.44;5068054;28;20199;-74
2023/08/07 08:42:06;;;;;;;1.25;1.10;;;;;;;25.88;42.22;94156.31;5068325;28;20260;-74
2023/08/07 08:44:37;;;;;;;1.38;1.17;;;;;;;25.15;43.85;94166.06;5069934;28;20201;-74
2023/08/07 08:47:05;;;;;;;1.40;1.10;;;;;;;25.45;44.73;94168.50;5070479;28;20278;-73
2023/08/07 08:49:37;;;;;;;1.10;1.00;;;;;;;25.50;43.71;94165.22;5081379;28;20214;-75
2023/08/07 08:52:05;;;;;;;2.38;1.60;;;;;;;24.70;44.90;94180.53;5060096;28;20275;-72
2023/08/07 08:54:32;;;;;;;1.02;0.98;;;;;;;25.21;43.19;94169.88;5070927;28;20304;-73
2023/08/07 08:57:00;;;;;;;1.75;1.48;;;;;;;25.46;44.15;94167.28;5070422;28;20559;-73
2023/08/07 08:59:28;;;;;;;1.40;1.20;;;;;;;24.69;44.20;94162.34;5070944;28;20253;-75
2023/08/07 09:01:56;;;;;;;2.95;1.40;;;;;;;25.46;44.25;94152.63;5074438;28;20203;-73
2023/08/07 09:04:23;;;;;;;1.38;1.27;;;;;;;25.32;44.17;94151.00;5070187;28;20270;-73
2023/08/07 09:06:50;;;;;;;2.08;1.20;;;;;;;25.01;43.14;94160.88;5070380;28;20198;-73
2023/08/07 09:09:22;;;;;;;1.10;1.00;;;;;;;25.65;41.86;94145.47;5070924;28;20207;-73
2023/08/07 09:11:50;;;;;;;1.60;1.23;;;;;;;25.86;42.87;94147.66;5060357;28;20293;-75
2023/08/07 09:14:20;;;;;;;1.40;1.30;;;;;;;25.70;42.36;94150.47;5070178;28;20264;-72
2023/08/07 09:16:52;;;;;;;1.50;1.15;;;;;;;25.42;42.83;94152.72;5069222;28;20207;-74
2023/08/07 09:19:20;;;;;;;1.35;1.23;;;;;;;25.16;43.03;94159.31;5069911;28;20203;-74
2023/08/07 09:21:47;;;;;;;1.27;1.10;;;;;;;25.12;43.58;94144.78;5070538;28;20222;-72
2023/08/07 09:24:16;;;;;;;1.10;1.00;;;;;;;24.58;44.94;94152.72;5070077;28;20219;-73
2023/08/07 09:26:44;;;;;;;1.40;1.00;;;;;;;24.54;45.40;94146.47;5070065;28;20203;-72
2023/08/07 09:29:11;;;;;;;1.38;1.27;;;;;;;24.44;45.06;94139.94;5070043;28;20749;-72
2023/08/07 09:31:38;;;;;;;2.13;1.27;;;;;;;24.91;44.26;94128.59;5060819;28;20566;-74
2023/08/07 09:34:06;;;;;;;3.40;1.48;;;;;;;25.09;44.91;94129.00;5069981;28;20235;-74
2023/08/07 09:36:35;;;;;;;1.33;1.23;;;;;;;25.19;44.80;94122.41;5070293;28;20207;-73
2023/08/07 09:39:02;;;;;;;1.25;1.10;;;;;;;25.15;43.01;94133.56;5069936;28;20207;-74
2023/08/07 09:41:30;;;;;;;1.25;0.85;;;;;;;26.02;42.35;94128.19;5070087;28;20209;-74
2023/08/07 09:43:57;;;;;;;1.75;1.30;;;;;;;25.76;42.24;94126.53;5069957;28;20227;-73
2023/08/07 09:46:26;;;;;;;1.27;1.17;;;;;;;25.93;43.62;94122.50;5066882;28;20278;-74
2023/08/07 09:48:52;;;;;;;1.00;0.90;;;;;;;25.55;43.25;94129.84;5069208;28;20191;-75
2023/08/07 09:51:20;;;;;;;2.28;1.05;;;;;;;25.91;43.46;94121.38;5067948;28;20202;-74
2023/08/07 09:53:50;;;;;;;2.33;1.00;;;;;;;25.80;42.84;94127.22;5068968;28;20195;-74
2023/08/07 09:56:17;;;;;;;3.78;1.73;;;;;;;26.44;41.97;94120.66;5072317;28;20227;-74
2023/08/07 09:58:48;;;;;;;3.03;2.00;;;;;;;26.69;40.98;94119.13;5069298;28;20199;-74
2023/08/07 10:01:16;;;;;;;2.28;1.42;;;;;;;26.41;41.41;94120.75;5067158;28;20218;-73
2023/08/07 10:03:44;;;;;;;4.75;1.52;;;;;;;25.41;42.93;94129.00;5069224;28;20234;-74
2023/08/07 10:06:12;;;;;;;2.42;1.23;;;;;;;25.84;42.36;94127.88;5069246;28;20725;-74
2023/08/07 10:08:42;;;;;;;2.08;1.50;;;;;;;25.51;42.96;94118.84;5068454;28;20258;-74
2023/08/07 10:11:11;;;;;;;1.55;1.42;;;;;;;25.95;43.00;94122.84;5063015;28;20222;-74
2023/08/07 10:18:40;;;;;;;1.38;1.05;;;;;;;24.93;44.12;94127.00;4985108;28;20213;-77
2023/08/07 10:21:07;;;;;;;2.85;1.40;;;;;;;25.19;44.73;94122.41;4986648;28;20197;-79
2023/08/07 10:23:36;;;;;;;1.63;1.50;;;;;;;25.18;44.62;94125.59;4981296;28;20229;-82
2023/08/07 10:26:05;;;;;;;1.40;1.10;;;;;;;25.21;43.95;94122.75;4988687;28;20202;-78
2023/08/07 10:28:37;;;;;;;1.30;1.20;;;;;;;25.37;43.07;94121.97;4988405;28;20925;-80
2023/08/07 10:31:05;;;;;;;1.67;1.23;;;;;;;24.90;44.03;94138.13;4989527;28;20289;-82
2023/08/07 10:33:33;;;;;;;1.40;1.30;;;;;;;24.77;43.94;94135.25;4989659;28;20263;-80
2023/08/07 10:36:00;;;;;;;1.63;1.50;;;;;;;25.08;43.15;94132.97;4988003;28;20660;-81
2023/08/07 10:38:27;;;;;;;1.50;1.40;;;;;;;25.65;43.54;94117.72;4987971;28;20213;-77
2023/08/07 10:41:07;;;;;;;1.48;1.33;;;;;;;26.25;42.51;94101.34;4983316;28;20561;-79
2023/08/07 10:43:39;;;;;;;1.73;1.15;;;;;;;26.41;41.75;94109.66;4985313;28;20213;-77
2023/08/07 10:46:07;;;;;;;1.63;1.33;;;;;;;26.42;42.03;94106.44;4982990;28;20265;-79
2023/08/07 10:48:39;;;;;;;1.50;1.38;;;;;;;25.63;43.26;94109.03;4984810;28;20202;-79
2023/08/07 10:51:06;;;;;;;3.63;1.45;;;;;;;25.87;42.96;94104.81;4988137;28;20204;-79
2023/08/07 10:53:35;;;;;;;1.30;1.20;;;;;;;26.09;43.59;94105.78;4989165;28;20268;-83
2023/08/07 10:56:03;;;;;;;1.15;1.05;;;;;;;25.70;42.59;94106.06;4989017;28;20206;-79
2023/08/07 10:58:32;;;;;;;2.95;1.30;;;;;;;25.57;43.90;94100.44;4988304;28;20206;-81
2023/08/07 11:01:20;;;;;;;1.95;1.67;;;;;;;25.87;42.76;94104.81;4989216;28;20198;-79
2023/08/07 11:03:49;;;;;;;4.25;1.27;;;;;;;26.10;42.64;94095.47;4988939;28;20756;-79
2023/08/07 11:06:16;;;;;;;1.77;1.35;;;;;;;26.55;43.00;94084.22;4986229;28;20205;-79
2023/08/07 11:08:43;;;;;;;1.85;1.67;;;;;;;26.90;41.93;94091.47;4988499;28;20264;-79
2023/08/07 11:11:10;;;;;;;2.80;1.52;;;;;;;26.58;41.65;94085.34;4990462;28;20280;-80
2023/08/07 11:13:37;;;;;;;1.45;1.30;;;;;;;26.03;41.78;94079.78;4981119;28;21992;-78
2023/08/07 11:16:04;;;;;;;1.65;1.48;;;;;;;26.54;43.01;94066.75;4972901;28;20206;-77
2023/08/07 11:18:33;;;;;;;1.70;1.40;;;;;;;26.23;41.75;94070.50;4973222;28;20230;-77
2023/08/07 11:21:01;;;;;;;1.25;1.15;;;;;;;26.08;42.69;94059.81;4973655;28;20753;-78
2023/08/07 11:23:28;;;;;;;4.85;1.50;;;;;;;25.77;42.48;94047.63;4973206;28;20244;-79
2023/08/07 11:25:56;;;;;;;1.33;1.20;;;;;;;25.79;42.59;94053.50;4973538;28;20218;-77
2023/08/07 11:28:23;;;;;;;1.52;1.42;;;;;;;26.17;41.62;94054.38;4961864;28;20550;-78
2023/08/07 11:30:52;;;;;;;1.50;1.40;;;;;;;26.32;42.18;94057.53;4975116;28;20210;-77
2023/08/07 11:33:19;;;;;;;2.72;1.35;;;;;;;26.50;40.67;94055.00;4976508;28;20276;-76
2023/08/07 11:35:47;;;;;;;2.20;1.20;;;;;;;26.45;41.46;94054.78;4977855;28;20675;-77
2023/08/07 11:38:29;;;;;;;1.75;1.30;;;;;;;26.76;41.62;94058.56;4971617;28;20202;-79
2023/08/07 11:40:58;;;;;;;1.75;1.10;;;;;;;26.16;41.36;94050.03;4972680;28;20202;-76
2023/08/07 11:43:24;;;;;;;2.75;1.35;;;;;;;26.47;41.78;94057.88;4968868;28;20222;-78
2023/08/07 11:45:51;;;;;;;1.92;1.17;;;;;;;25.85;41.44;94065.59;4971527;28;20250;-77
2023/08/07 11:48:18;;;;;;;1.30;1.20;;;;;;;25.95;42.36;94067.31;4972218;28;20191;-79
2023/08/07 11:50:45;;;;;;;1.77;1.50;;;;;;;26.73;41.31;94062.22;4970620;28;20237;-77
2023/08/07 11:53:13;;;;;;;3.83;1.35;;;;;;;26.88;41.22;94054.22;4971417;28;20202;-79
2023/08/07 11:55:48;;;;;;;1.50;1.35;;;;;;;27.19;39.61;94051.63;4972819;28;20951;-78